Accueil
METAR-TAF:

METAR-TAF

Aéroports :

Longyearbyen, Norvège

Aéroport de Longyearbyen

latitude: 78-15N, longitude: 015-28E, altitude: 2 m

Observation

Le bulletin a été fait il y a 18 minutes, à 18:50 UTC
Vent 5 kt de est/sud-est
Température -9°C
Humidité 73%
Pression 1016 hPa
Visibilité 10 km ou plus
Nuages fragmentés à une hauteur de 1900 ft
neige faible

METAR: ENSB 241850Z 12005KT 9999 -SN BKN019 M09/M13 Q1016 RMK WIND 1400FT VRB03KT

Heure: 21:08 (19:08 UTC)

Prévision

Prévision valable du 24 à 18 UTC au 25 à 18 UTC
Vent 5 kt de direction variable
Visibilité 10 km ou plus
Nuages épars à une hauteur de 2000 ft

TAF: ENSB 2418/2518 VRB05KT 9999 SCT020

Observations et prévisions météorologiques de plus de 4000 aéroports (messages METAR et TAF).

Les stations disponibles sont représentées par des disques jaunes et rouges sur la carte.

Passer la souris dessus pour voir le nom de la station.

Cliquer dessus pour voir les observations et prévisions météorologiques.

Pour changer de carte: cliquez sur les boutons verts avec une croix noire pour zoomer, sur le bouton vert avec un tiret pour effectuer un zoom arrière, ou sur les flèches vertes pour les cartes adjacentes.


METAR-TAF: